Time;durP1;ratioP1;P1;durP2;ratioP2;P2;SDS_P1;SDS_P2;PMS_P1;PMS_P2;Temp;Humidity;BMP_temperature;BMP_pressure;BME280_temperature;BME280_humidity;BME280_pressure;Samples;Min_cycle;Max_cycle;Signal;HPM_P1;HPM_P2
2023/04/13 00:00:17;;;;;;;3.05;2.40;;;16.00;39.70;;;;;;5032531;28;20436;-49
2023/04/13 00:02:45;;;;;;;3.08;2.00;;;16.10;39.70;;;;;;5032058;28;20178;-49
2023/04/13 00:05:11;;;;;;;1.85;1.65;;;16.10;39.50;;;;;;5032113;28;20716;-49
2023/04/13 00:07:37;;;;;;;2.00;1.70;;;16.10;39.50;;;;;;5032061;28;20206;-49
2023/04/13 00:10:05;;;;;;;2.90;2.30;;;16.10;39.50;;;;;;5032428;28;20764;-49
2023/04/13 00:12:32;;;;;;;1.98;1.50;;;16.10;39.40;;;;;;5032021;28;20201;-49
2023/04/13 00:14:58;;;;;;;2.25;2.05;;;16.10;39.40;;;;;;5032192;28;20174;-49
2023/04/13 00:17:25;;;;;;;2.30;2.10;;;16.10;39.40;;;;;;5032083;28;20201;-49
2023/04/13 00:19:56;;;;;;;5.95;2.60;;;16.10;39.40;;;;;;5032003;28;20421;-49
2023/04/13 00:22:26;;;;;;;3.65;2.17;;;16.10;39.30;;;;;;5031871;28;20168;-49
2023/04/13 00:24:54;;;;;;;2.20;1.70;;;16.10;39.30;;;;;;5032264;28;20173;-49
2023/04/13 00:27:21;;;;;;;4.65;2.95;;;16.10;39.40;;;;;;5031932;28;20248;-49
2023/04/13 00:29:47;;;;;;;4.97;2.00;;;16.10;39.50;;;;;;5031929;28;20241;-48
2023/04/13 00:32:12;;;;;;;1.97;1.50;;;16.10;39.60;;;;;;5031702;28;20170;-48
2023/04/13 00:34:38;;;;;;;1.70;1.60;;;16.00;39.50;;;;;;5032029;28;20181;-49
2023/04/13 00:37:05;;;;;;;2.03;1.70;;;16.10;39.50;;;;;;5032216;28;20173;-49
2023/04/13 00:39:32;;;;;;;3.15;1.50;;;16.00;40.20;;;;;;5032026;28;20174;-49
2023/04/13 00:41:58;;;;;;;1.70;1.48;;;16.00;39.60;;;;;;5031885;28;20178;-49
2023/04/13 00:44:24;;;;;;;4.38;1.70;;;15.90;39.80;;;;;;5031791;28;20174;-49
2023/04/13 00:46:53;;;;;;;2.27;1.63;;;15.90;40.50;;;;;;5031760;28;20206;-49
2023/04/13 00:49:20;;;;;;;1.67;1.10;;;15.90;39.80;;;;;;5031714;28;20456;-49
2023/04/13 00:51:46;;;;;;;3.13;1.48;;;16.00;39.70;;;;;;5035822;28;20170;-49
2023/04/13 00:54:13;;;;;;;3.30;1.50;;;15.90;39.90;;;;;;5035888;28;20529;-49
2023/04/13 00:56:41;;;;;;;1.80;1.30;;;15.80;39.80;;;;;;5035904;28;20231;-49
2023/04/13 00:59:09;;;;;;;2.65;1.23;;;15.80;39.90;;;;;;5035851;28;20244;-49
2023/04/13 01:01:44;;;;;;;2.25;1.55;;;15.80;39.80;;;;;;5035538;28;20204;-49
2023/04/13 01:04:17;;;;;;;2.33;1.00;;;15.90;39.90;;;;;;5035422;28;20524;-49
2023/04/13 01:06:51;;;;;;;2.28;1.48;;;15.80;39.80;;;;;;5035619;28;20332;-49
2023/04/13 01:09:39;;;;;;;2.38;1.65;;;15.80;39.90;;;;;;5035382;28;20194;-49
2023/04/13 01:12:17;;;;;;;3.58;1.42;;;15.70;40.80;;;;;;5035178;28;20181;-49
2023/04/13 01:14:59;;;;;;;4.30;1.45;;;15.70;40.20;;;;;;5035615;28;20170;-49
2023/04/13 01:17:29;;;;;;;3.33;1.10;;;15.70;40.10;;;;;;5035181;28;20280;-49
2023/04/13 01:20:14;;;;;;;2.60;1.40;;;15.70;40.20;;;;;;5035310;28;20170;-49
2023/04/13 01:22:51;;;;;;;1.40;1.25;;;15.60;40.30;;;;;;5034882;28;20174;-49
2023/04/13 01:25:35;;;;;;;1.90;1.15;;;15.60;40.30;;;;;;5035390;28;20549;-49
2023/04/13 01:28:07;;;;;;;2.20;1.38;;;15.60;40.20;;;;;;5035397;28;20193;-49
2023/04/13 01:30:35;;;;;;;1.83;1.10;;;15.70;40.20;;;;;;5035064;28;20253;-49
2023/04/13 01:33:01;;;;;;;2.67;1.23;;;15.70;40.00;;;;;;5034667;28;20170;-48
2023/04/13 01:35:28;;;;;;;2.30;1.77;;;15.70;40.10;;;;;;5035319;28;20526;-49
2023/04/13 01:37:55;;;;;;;1.70;1.48;;;15.70;40.00;;;;;;5034984;28;20252;-49
2023/04/13 01:40:22;;;;;;;2.15;1.25;;;15.70;40.20;;;;;;5035091;28;20181;-49
2023/04/13 01:42:48;;;;;;;4.30;1.80;;;15.70;39.90;;;;;;5034684;28;20181;-49
2023/04/13 01:45:24;;;;;;;4.53;1.60;;;15.80;39.70;;;;;;5034735;28;20197;-49
2023/04/13 01:48:08;;;;;;;1.90;1.70;;;15.90;39.70;;;;;;5034720;28;20455;-49
2023/04/13 01:50:39;;;;;;;1.90;1.70;;;15.90;39.70;;;;;;5035011;28;20158;-49
2023/04/13 01:53:14;;;;;;;2.95;2.40;;;15.90;39.70;;;;;;5034731;28;20246;-49
2023/04/13 01:55:42;;;;;;;2.10;1.60;;;15.80;39.60;;;;;;5034565;28;20184;-49
2023/04/13 01:58:11;;;;;;;3.05;2.20;;;15.80;39.70;;;;;;5034467;28;20289;-49
2023/04/13 02:00:41;;;;;;;3.58;2.35;;;15.90;39.70;;;;;;5034319;28;20181;-49
2023/04/13 02:03:08;;;;;;;2.13;1.25;;;15.80;39.70;;;;;;5034383;28;20170;-49
2023/04/13 02:05:39;;;;;;;2.60;1.92;;;15.80;39.50;;;;;;5034554;28;20233;-49
2023/04/13 02:08:09;;;;;;;2.70;1.52;;;15.80;39.50;;;;;;5034368;28;20689;-49
2023/04/13 02:10:36;;;;;;;1.45;0.95;;;15.80;39.40;;;;;;5034149;28;20182;-49
2023/04/13 02:13:06;;;;;;;2.58;1.90;;;15.80;39.40;;;;;;5034352;28;20277;-49
2023/04/13 02:15:36;;;;;;;2.10;1.63;;;15.80;39.40;;;;;;5034263;28;20553;-49
2023/04/13 02:18:03;;;;;;;1.83;1.50;;;15.80;39.40;;;;;;5016573;28;20194;-49
2023/04/13 02:20:39;;;;;;;2.50;1.95;;;15.80;39.50;;;;;;5034219;28;20650;-49
2023/04/13 02:23:07;;;;;;;2.35;1.90;;;15.80;39.60;;;;;;5033891;28;20648;-49
2023/04/13 02:25:32;;;;;;;1.55;1.30;;;15.80;39.60;;;;;;5034193;28;20209;-49
2023/04/13 02:27:58;;;;;;;6.20;2.37;;;15.70;40.00;;;;;;5034221;28;20201;-49
2023/04/13 02:30:25;;;;;;;2.20;1.67;;;15.60;40.00;;;;;;5034058;28;20412;-49
2023/04/13 02:32:52;;;;;;;2.38;1.70;;;15.50;40.90;;;;;;5033956;28;20412;-49
2023/04/13 02:35:19;;;;;;;2.15;1.65;;;15.50;40.40;;;;;;5033960;28;20174;-49
2023/04/13 02:37:45;;;;;;;3.95;1.70;;;15.50;40.30;;;;;;5033954;28;20268;-49
2023/04/13 02:40:11;;;;;;;2.00;1.42;;;15.50;40.20;;;;;;5034000;28;20261;-49
2023/04/13 02:42:38;;;;;;;2.10;1.50;;;15.50;40.10;;;;;;5033495;28;20181;-49
2023/04/13 02:45:06;;;;;;;1.73;1.10;;;15.50;40.10;;;;;;5033677;28;20206;-49
2023/04/13 02:47:33;;;;;;;3.63;2.13;;;15.50;40.00;;;;;;5033534;28;20213;-49
2023/04/13 02:50:01;;;;;;;1.80;1.40;;;15.50;40.10;;;;;;5033753;28;20170;-49
2023/04/13 02:52:27;;;;;;;2.15;1.50;;;15.50;40.00;;;;;;5033527;28;20174;-49
2023/04/13 02:54:53;;;;;;;2.30;1.80;;;15.50;39.90;;;;;;5033629;28;20244;-49
2023/04/13 02:57:22;;;;;;;3.60;2.10;;;15.50;39.90;;;;;;5033594;28;20491;-48
2023/04/13 02:59:48;;;;;;;1.63;1.10;;;15.40;39.90;;;;;;5033294;28;20638;-49
2023/04/13 03:02:14;;;;;;;2.10;1.42;;;15.40;39.90;;;;;;5033128;28;20186;-49
2023/04/13 03:04:40;;;;;;;2.30;1.98;;;15.40;39.80;;;;;;5033247;28;20170;-49
2023/04/13 03:07:09;;;;;;;3.03;1.97;;;15.40;39.90;;;;;;5033056;28;20217;-48
2023/04/13 03:09:42;;;;;;;1.98;1.40;;;15.30;40.00;;;;;;5033346;28;20181;-49
2023/04/13 03:12:08;;;;;;;2.53;1.90;;;15.30;39.90;;;;;;5032409;28;20260;-49
2023/04/13 03:14:35;;;;;;;1.90;1.33;;;15.20;39.90;;;;;;5033074;28;20646;-48
2023/04/13 03:17:02;;;;;;;4.50;1.30;;;15.20;40.00;;;;;;5032883;28;20508;-49
2023/04/13 03:19:27;;;;;;;2.10;1.48;;;15.30;40.00;;;;;;5033147;28;20261;-48
2023/04/13 03:21:53;;;;;;;1.90;1.40;;;15.20;39.90;;;;;;5032776;28;20515;-48
2023/04/13 03:24:19;;;;;;;2.47;1.30;;;15.20;39.90;;;;;;5033232;28;21007;-48
2023/04/13 03:26:45;;;;;;;2.20;1.10;;;15.20;39.90;;;;;;5032778;28;20452;-49
2023/04/13 03:29:11;;;;;;;2.28;1.20;;;15.20;39.80;;;;;;5032751;28;20423;-49
2023/04/13 03:31:37;;;;;;;1.93;1.30;;;15.10;39.90;;;;;;5032643;28;20178;-49
2023/04/13 03:34:03;;;;;;;2.03;1.23;;;15.10;39.80;;;;;;5032570;28;20407;-49
2023/04/13 03:36:30;;;;;;;3.90;1.50;;;15.10;39.60;;;;;;5032946;28;20265;-49
2023/04/13 03:38:56;;;;;;;6.45;1.42;;;15.10;39.50;;;;;;5032779;28;20198;-49
2023/04/13 03:41:22;;;;;;;1.60;1.00;;;15.00;39.30;;;;;;5032553;28;20196;-48
2023/04/13 03:43:49;;;;;;;2.90;1.10;;;15.00;39.00;;;;;;5032293;28;20264;-48
2023/04/13 03:46:15;;;;;;;2.67;0.80;;;14.90;38.80;;;;;;5032450;28;20544;-49
2023/04/13 03:48:41;;;;;;;1.95;0.88;;;14.80;38.30;;;;;;5032226;28;20300;-49
2023/04/13 03:51:07;;;;;;;2.00;1.00;;;14.80;38.40;;;;;;5032546;28;20641;-49
2023/04/13 03:53:37;;;;;;;1.27;0.70;;;14.70;38.20;;;;;;5032188;28;20174;-48
2023/04/13 03:56:03;;;;;;;1.40;0.65;;;14.70;38.20;;;;;;5032443;28;20409;-49
2023/04/13 03:58:29;;;;;;;1.35;0.75;;;14.60;37.80;;;;;;5032198;28;20261;-49
2023/04/13 04:00:55;;;;;;;2.13;1.00;;;14.60;37.80;;;;;;5032201;28;20209;-49
2023/04/13 04:03:23;;;;;;;1.60;0.90;;;14.60;37.90;;;;;;5032019;28;20185;-48
2023/04/13 04:05:48;;;;;;;1.85;0.77;;;14.70;38.00;;;;;;5032194;28;20206;-49
2023/04/13 04:08:14;;;;;;;2.00;0.90;;;14.70;37.80;;;;;;5032251;28;20197;-48
2023/04/13 04:10:40;;;;;;;2.40;0.87;;;14.70;37.70;;;;;;5032288;28;20649;-48
2023/04/13 04:13:06;;;;;;;1.60;1.20;;;14.70;37.60;;;;;;5032047;28;20261;-48
2023/04/13 04:15:31;;;;;;;1.30;0.70;;;14.70;37.60;;;;;;5032403;28;20412;-48
2023/04/13 04:17:58;;;;;;;2.37;1.37;;;14.70;37.30;;;;;;5032065;28;20194;-48
2023/04/13 04:20:23;;;;;;;1.55;0.60;;;14.70;37.30;;;;;;5032073;28;20593;-48
2023/04/13 04:22:51;;;;;;;2.33;0.60;;;14.70;37.50;;;;;;5031749;28;20185;-48
2023/04/13 04:25:20;;;;;;;3.95;0.82;;;14.70;37.30;;;;;;5032105;28;20452;-48
2023/04/13 04:27:51;;;;;;;1.83;1.00;;;14.70;37.30;;;;;;5031828;28;20276;-49
2023/04/13 04:30:20;;;;;;;2.47;1.05;;;14.70;37.20;;;;;;5032085;28;20197;-49
2023/04/13 04:32:47;;;;;;;1.95;0.80;;;14.70;37.20;;;;;;5031593;28;20178;-49
2023/04/13 04:35:13;;;;;;;1.80;0.85;;;14.70;37.20;;;;;;5032164;28;20174;-48
2023/04/13 04:37:39;;;;;;;3.30;1.33;;;14.70;37.20;;;;;;5031858;28;20255;-48
2023/04/13 04:40:09;;;;;;;10.20;0.95;;;14.70;37.20;;;;;;5032034;28;20227;-49
2023/04/13 04:42:38;;;;;;;1.75;1.20;;;14.80;37.10;;;;;;5031437;28;20672;-48
2023/04/13 04:45:05;;;;;;;6.72;1.27;;;14.80;37.00;;;;;;5032006;28;20260;-48
2023/04/13 04:47:31;;;;;;;2.42;1.10;;;14.70;37.10;;;;;;5031672;28;20266;-49
2023/04/13 04:49:58;;;;;;;2.55;1.80;;;14.70;37.20;;;;;;5031745;28;20166;-48
2023/04/13 04:52:27;;;;;;;1.33;0.85;;;14.60;37.40;;;;;;5031597;28;20174;-48
2023/04/13 04:54:53;;;;;;;2.95;0.93;;;14.60;37.60;;;;;;5031611;28;20166;-48
2023/04/13 04:57:19;;;;;;;2.20;1.10;;;14.60;37.70;;;;;;5031408;28;20178;-48
2023/04/13 04:59:45;;;;;;;1.52;0.98;;;14.60;37.80;;;;;;5031816;28;20400;-48
2023/04/13 05:02:11;;;;;;;1.67;1.00;;;14.60;37.90;;;;;;5031502;28;20538;-48
2023/04/13 05:04:38;;;;;;;2.00;1.00;;;14.50;38.10;;;;;;5031776;28;20443;-48
2023/04/13 05:07:04;;;;;;;5.90;1.55;;;14.40;38.20;;;;;;5031730;28;20206;-48
2023/04/13 05:09:30;;;;;;;2.30;1.10;;;14.40;38.10;;;;;;5031547;28;20562;-48
2023/04/13 05:11:56;;;;;;;1.95;0.95;;;14.40;38.00;;;;;;5031345;28;20185;-48
2023/04/13 05:14:22;;;;;;;2.00;1.20;;;14.40;38.10;;;;;;5031708;28;20175;-48
2023/04/13 05:16:50;;;;;;;2.30;1.23;;;14.40;38.20;;;;;;5013829;28;20585;-48
2023/04/13 05:19:15;;;;;;;2.20;1.20;;;14.40;38.20;;;;;;5031814;28;20554;-48
2023/04/13 05:21:41;;;;;;;1.77;1.23;;;14.40;38.30;;;;;;5031301;28;20182;-49
2023/04/13 05:24:07;;;;;;;2.30;1.70;;;14.40;38.30;;;;;;5031273;28;20408;-48
2023/04/13 05:26:33;;;;;;;2.30;1.47;;;14.50;38.40;;;;;;5031417;28;20213;-48
2023/04/13 05:28:59;;;;;;;2.30;1.50;;;14.40;38.30;;;;;;5031562;28;20776;-49
2023/04/13 05:31:26;;;;;;;1.43;1.10;;;14.50;38.50;;;;;;5031299;28;20404;-49
2023/04/13 05:33:51;;;;;;;1.70;0.90;;;14.40;38.30;;;;;;5031065;28;20409;-48
2023/04/13 05:36:17;;;;;;;2.33;1.87;;;14.40;37.90;;;;;;5032907;28;20192;-48
2023/04/13 05:38:43;;;;;;;2.73;1.33;;;14.30;37.50;;;;;;5034732;28;20328;-48
2023/04/13 05:41:09;;;;;;;1.60;1.00;;;14.20;37.20;;;;;;5034890;28;20707;-49
2023/04/13 05:43:35;;;;;;;3.25;1.00;;;14.20;37.50;;;;;;5034756;28;20264;-48
2023/04/13 05:46:01;;;;;;;2.55;1.35;;;14.20;37.30;;;;;;5034851;28;20256;-48
2023/04/13 05:48:26;;;;;;;1.93;1.13;;;14.20;37.20;;;;;;5034592;28;20205;-48
2023/04/13 05:50:58;;;;;;;2.57;1.20;;;14.20;36.50;;;;;;5034622;28;20400;-49
2023/04/13 05:53:24;;;;;;;1.60;1.20;;;14.10;36.70;;;;;;5034579;28;20174;-48
2023/04/13 05:55:51;;;;;;;2.05;0.98;;;14.10;36.30;;;;;;5034712;28;20235;-48
2023/04/13 05:58:17;;;;;;;2.58;1.10;;;14.10;36.40;;;;;;5034596;28;20197;-48
2023/04/13 06:00:43;;;;;;;4.55;1.35;;;14.10;36.00;;;;;;5034446;28;20178;-48
2023/04/13 06:03:09;;;;;;;2.00;0.90;;;14.10;36.10;;;;;;5034261;28;20223;-48
2023/04/13 06:05:36;;;;;;;2.37;1.27;;;14.20;36.30;;;;;;5034249;28;20681;-48
2023/04/13 06:08:02;;;;;;;7.25;1.40;;;14.30;36.50;;;;;;5034130;28;20757;-48
2023/04/13 06:10:28;;;;;;;3.15;1.40;;;14.30;36.20;;;;;;5034513;28;20174;-48
2023/04/13 06:12:54;;;;;;;3.30;1.10;;;14.20;35.80;;;;;;5034002;28;20166;-48
2023/04/13 06:15:20;;;;;;;3.47;1.25;;;14.20;35.40;;;;;;5034134;28;20661;-49
2023/04/13 06:17:46;;;;;;;2.30;1.25;;;14.10;35.40;;;;;;5034004;28;20208;-48
2023/04/13 06:20:13;;;;;;;1.43;0.90;;;14.10;35.60;;;;;;5034426;28;20174;-48
2023/04/13 06:22:39;;;;;;;2.45;0.95;;;14.10;35.80;;;;;;5033793;28;20277;-48
2023/04/13 06:25:05;;;;;;;3.60;1.53;;;14.10;35.60;;;;;;5033820;28;20588;-48
2023/04/13 06:27:32;;;;;;;2.88;1.15;;;14.20;35.80;;;;;;5034061;28;20300;-48
2023/04/13 06:29:58;;;;;;;2.35;1.55;;;14.30;35.60;;;;;;5034179;28;20177;-48
2023/04/13 06:32:24;;;;;;;4.18;1.90;;;14.30;35.00;;;;;;5033675;28;20177;-48
2023/04/13 06:34:50;;;;;;;6.30;1.17;;;14.30;35.20;;;;;;5033836;28;20166;-48
2023/04/13 06:37:16;;;;;;;3.53;2.00;;;14.30;34.90;;;;;;5033595;28;20189;-48
2023/04/13 06:39:42;;;;;;;4.97;1.02;;;14.30;35.30;;;;;;5033603;28;20186;-48
2023/04/13 06:42:08;;;;;;;8.37;1.27;;;14.30;34.90;;;;;;5033771;28;20224;-48
2023/04/13 06:44:33;;;;;;;4.73;1.87;;;14.30;35.00;;;;;;5033689;28;20174;-48
2023/04/13 06:46:59;;;;;;;1.30;0.90;;;14.30;34.80;;;;;;5032572;28;20236;-48
2023/04/13 06:49:25;;;;;;;3.20;1.13;;;14.30;34.50;;;;;;5033070;28;20245;-48
2023/04/13 06:51:51;;;;;;;3.20;1.10;;;14.30;34.60;;;;;;5033134;28;20401;-48
2023/04/13 06:54:17;;;;;;;2.60;1.57;;;14.30;34.30;;;;;;5033729;28;20249;-48
2023/04/13 06:56:42;;;;;;;3.60;1.20;;;14.30;34.60;;;;;;5033238;28;20534;-48
2023/04/13 06:59:08;;;;;;;1.90;0.90;;;14.30;34.80;;;;;;5033380;28;20279;-48
2023/04/13 07:01:34;;;;;;;3.83;1.50;;;14.30;34.80;;;;;;5033249;28;20201;-48
2023/04/13 07:04:01;;;;;;;3.27;1.23;;;14.40;34.80;;;;;;5033081;28;20181;-48
2023/04/13 07:06:27;;;;;;;8.13;1.98;;;14.40;34.60;;;;;;5033053;28;20249;-48
2023/04/13 07:08:53;;;;;;;2.20;1.30;;;14.50;34.50;;;;;;5033330;28;20558;-48
2023/04/13 07:11:19;;;;;;;1.70;1.10;;;14.60;34.50;;;;;;5033066;28;20650;-48
2023/04/13 07:13:45;;;;;;;1.93;1.00;;;14.60;34.80;;;;;;5032954;28;20177;-48
2023/04/13 07:16:11;;;;;;;2.00;1.30;;;14.80;34.60;;;;;;5033103;28;20495;-48
2023/04/13 07:18:37;;;;;;;8.90;1.50;;;14.80;34.50;;;;;;5032969;28;20198;-48
2023/04/13 07:21:03;;;;;;;2.78;1.30;;;14.90;34.30;;;;;;5033073;28;20439;-50
2023/04/13 07:23:29;;;;;;;2.28;0.95;;;14.90;33.90;;;;;;5032835;28;20186;-48
2023/04/13 07:25:55;;;;;;;5.23;1.40;;;14.90;33.60;;;;;;5032772;28;20670;-48
2023/04/13 07:28:20;;;;;;;3.77;1.20;;;15.00;34.00;;;;;;5032983;28;20218;-47
2023/04/13 07:30:46;;;;;;;6.83;2.03;;;15.10;34.50;;;;;;5032637;28;20258;-47
2023/04/13 07:33:12;;;;;;;2.90;0.73;;;15.10;33.50;;;;;;5032500;28;20177;-48
2023/04/13 07:35:39;;;;;;;2.90;1.27;;;15.10;33.60;;;;;;5032905;28;20467;-48
2023/04/13 07:38:05;;;;;;;3.72;0.93;;;15.10;33.40;;;;;;5032533;28;20781;-48
2023/04/13 07:40:31;;;;;;;3.92;1.20;;;15.00;32.70;;;;;;5032765;28;20201;-48
2023/04/13 07:42:57;;;;;;;1.90;1.10;;;14.90;32.80;;;;;;5032503;28;20212;-48
2023/04/13 07:45:23;;;;;;;1.50;1.00;;;14.90;33.20;;;;;;5032434;28;20737;-48
2023/04/13 07:47:48;;;;;;;5.93;1.40;;;14.90;33.40;;;;;;5032382;28;20467;-48
2023/04/13 07:50:15;;;;;;;3.30;1.10;;;14.90;33.60;;;;;;5032421;28;20784;-48
2023/04/13 07:52:41;;;;;;;3.20;1.20;;;14.90;33.10;;;;;;5032436;28;20170;-48
2023/04/13 07:55:08;;;;;;;6.55;1.75;;;15.00;32.80;;;;;;5032576;28;20182;-48
2023/04/13 07:57:35;;;;;;;4.32;1.45;;;15.00;32.80;;;;;;5032175;28;20696;-48
2023/04/13 08:00:04;;;;;;;4.20;1.13;;;14.90;33.20;;;;;;5032197;28;20213;-48
2023/04/13 08:02:30;;;;;;;4.20;1.13;;;15.00;33.60;;;;;;5031941;28;20177;-48
2023/04/13 08:04:57;;;;;;;3.73;1.23;;;15.20;33.50;;;;;;5032322;28;20181;-48
2023/04/13 08:07:22;;;;;;;1.92;1.15;;;15.30;32.50;;;;;;5032051;28;20425;-48
2023/04/13 08:09:51;;;;;;;1.60;1.17;;;15.50;32.90;;;;;;5032256;28;20177;-48
2023/04/13 08:12:17;;;;;;;2.55;1.27;;;15.60;32.20;;;;;;5031876;28;20180;-48
2023/04/13 08:14:43;;;;;;;2.65;0.85;;;15.70;32.70;;;;;;5032181;28;20257;-48
2023/04/13 08:17:09;;;;;;;1.67;0.90;;;15.70;31.90;;;;;;5031789;28;20590;-48
2023/04/13 08:19:35;;;;;;;5.60;1.30;;;15.70;31.90;;;;;;5031998;28;20193;-48
2023/04/13 08:22:00;;;;;;;2.43;1.07;;;15.80;31.00;;;;;;5032115;28;20181;-48
2023/04/13 08:24:26;;;;;;;2.50;1.10;;;15.70;30.60;;;;;;5031790;28;20412;-48
2023/04/13 08:26:53;;;;;;;2.13;1.20;;;15.50;30.60;;;;;;5031856;28;20493;-48
2023/04/13 08:29:20;;;;;;;2.03;0.82;;;15.60;31.10;;;;;;5031797;28;20448;-48
2023/04/13 08:31:46;;;;;;;2.15;1.10;;;15.50;30.50;;;;;;5031945;28;20181;-48
2023/04/13 08:34:13;;;;;;;1.80;0.88;;;15.40;30.60;;;;;;5032064;28;20259;-48
2023/04/13 08:36:39;;;;;;;2.72;1.25;;;15.40;31.30;;;;;;5032079;28;20270;-48
2023/04/13 08:39:08;;;;;;;3.75;1.63;;;15.50;31.40;;;;;;5031617;28;20566;-48
2023/04/13 08:41:39;;;;;;;3.25;1.80;;;15.50;31.10;;;;;;5031751;28;20212;-48
2023/04/13 08:44:07;;;;;;;3.22;2.05;;;15.60;30.40;;;;;;5031659;28;20206;-48
2023/04/13 08:46:33;;;;;;;3.08;1.13;;;15.70;30.20;;;;;;5031642;28;20217;-48
2023/04/13 08:49:02;;;;;;;4.93;1.50;;;15.60;28.70;;;;;;5031584;28;20697;-48
2023/04/13 08:51:30;;;;;;;3.97;1.35;;;15.60;29.30;;;;;;5031641;28;20174;-48
2023/04/13 08:53:58;;;;;;;4.22;1.48;;;15.50;29.30;;;;;;5031435;28;20541;-48
2023/04/13 08:56:25;;;;;;;4.43;1.58;;;15.50;29.70;;;;;;5031726;28;20197;-48
2023/04/13 08:58:55;;;;;;;3.28;1.17;;;15.60;29.30;;;;;;5031357;28;20653;-48
2023/04/13 09:01:23;;;;;;;2.28;1.10;;;15.70;29.30;;;;;;5031885;28;20645;-50
2023/04/13 09:04:06;;;;;;;3.97;1.58;;;15.70;29.40;;;;;;5031782;28;20185;-48
2023/04/13 09:06:36;;;;;;;3.13;1.50;;;15.70;29.20;;;;;;5031706;28;20247;-48
2023/04/13 09:09:14;;;;;;;2.95;1.30;;;15.70;28.90;;;;;;5031861;28;20190;-48
2023/04/13 09:11:41;;;;;;;5.13;1.20;;;15.70;29.30;;;;;;5033731;28;20499;-48
2023/04/13 09:14:08;;;;;;;4.55;1.10;;;15.70;29.80;;;;;;5035331;28;20178;-48
2023/04/13 09:16:39;;;;;;;2.83;1.35;;;15.70;29.10;;;;;;5035546;28;20186;-48
2023/04/13 09:19:07;;;;;;;3.67;1.85;;;15.80;29.80;;;;;;5035187;28;20205;-48
2023/04/13 09:21:43;;;;;;;3.38;1.45;;;15.80;29.50;;;;;;5035108;28;20182;-48
2023/04/13 09:24:10;;;;;;;2.50;1.50;;;16.00;29.10;;;;;;5035137;28;20645;-48
2023/04/13 09:26:43;;;;;;;5.15;2.00;;;16.00;28.50;;;;;;5035272;28;20202;-48
2023/04/13 09:29:13;;;;;;;4.05;1.17;;;16.10;29.00;;;;;;5035030;28;20685;-48
2023/04/13 09:31:39;;;;;;;3.20;0.95;;;16.10;29.40;;;;;;5034921;28;20569;-48
2023/04/13 09:34:08;;;;;;;2.03;1.40;;;16.20;29.30;;;;;;5034769;28;20174;-48
2023/04/13 09:36:35;;;;;;;1.63;1.17;;;16.20;29.30;;;;;;5034886;28;20353;-48
2023/04/13 09:39:03;;;;;;;2.10;1.33;;;16.30;29.00;;;;;;5035186;28;20202;-48
2023/04/13 09:41:33;;;;;;;3.42;1.38;;;16.20;28.50;;;;;;5034771;28;20182;-48
2023/04/13 09:44:00;;;;;;;3.53;1.60;;;16.10;28.90;;;;;;5034868;28;20182;-48
2023/04/13 09:46:25;;;;;;;3.00;1.63;;;16.10;28.90;;;;;;5034633;28;20607;-48
2023/04/13 09:49:03;;;;;;;1.50;1.13;;;16.10;29.30;;;;;;5034564;28;20260;-50
2023/04/13 09:51:36;;;;;;;2.08;1.20;;;16.00;28.60;;;;;;5034482;28;20404;-48
2023/04/13 09:54:04;;;;;;;4.32;1.80;;;15.80;29.30;;;;;;5034774;28;20170;-48
2023/04/13 09:56:41;;;;;;;4.72;1.20;;;15.80;28.80;;;;;;5034525;28;20191;-48
2023/04/13 09:59:08;;;;;;;3.17;1.35;;;15.80;29.10;;;;;;5034435;28;20253;-49
2023/04/13 10:01:36;;;;;;;1.90;0.82;;;15.80;28.40;;;;;;5034600;28;20184;-48
2023/04/13 10:04:07;;;;;;;5.65;1.50;;;15.80;29.00;;;;;;5034562;28;20233;-48
2023/04/13 10:06:41;;;;;;;4.78;1.10;;;15.90;28.80;;;;;;5034398;28;20219;-48
2023/04/13 10:09:08;;;;;;;2.88;1.27;;;16.00;28.90;;;;;;5034378;28;20199;-48
2023/04/13 10:11:40;;;;;;;3.20;1.10;;;16.10;28.90;;;;;;5034251;28;20641;-48
2023/04/13 10:14:15;;;;;;;3.88;1.88;;;16.20;29.10;;;;;;5034452;28;20167;-48
2023/04/13 10:17:11;;;;;;;5.63;1.55;;;16.30;29.50;;;;;;5034143;28;20166;-48
2023/04/13 10:19:42;;;;;;;3.85;1.67;;;16.50;28.60;;;;;;5034430;28;20174;-48
2023/04/13 10:22:10;;;;;;;11.77;1.40;;;16.70;29.20;;;;;;5033547;28;20188;-48
2023/04/13 10:24:38;;;;;;;4.65;1.60;;;16.80;28.30;;;;;;5034065;28;20737;-49
2023/04/13 10:27:15;;;;;;;3.53;1.40;;;17.00;27.80;;;;;;5033954;28;20293;-48
2023/04/13 10:29:41;;;;;;;3.78;1.30;;;17.00;27.40;;;;;;5033906;28;20768;-49
2023/04/13 10:32:18;;;;;;;2.88;1.52;;;17.10;27.30;;;;;;5033974;28;20178;-50
2023/04/13 10:34:44;;;;;;;7.70;1.83;;;17.30;28.00;;;;;;5034071;28;20186;-49
2023/04/13 10:37:23;;;;;;;3.13;1.50;;;17.50;25.50;;;;;;5033747;28;20182;-49
2023/04/13 10:40:00;;;;;;;2.60;1.70;;;17.80;27.50;;;;;;5033888;28;20182;-49
2023/04/13 10:42:26;;;;;;;3.70;1.88;;;18.00;26.50;;;;;;5033505;28;20558;-49
2023/04/13 10:44:53;;;;;;;2.55;1.10;;;18.20;25.80;;;;;;5033571;28;20186;-49
2023/04/13 10:47:20;;;;;;;4.25;1.35;;;18.40;25.60;;;;;;5033685;28;20225;-49
2023/04/13 10:49:47;;;;;;;4.20;0.90;;;18.60;25.60;;;;;;5033831;28;20181;-49
2023/04/13 10:52:14;;;;;;;4.63;1.35;;;18.90;25.00;;;;;;5033337;28;20507;-49
2023/04/13 10:54:41;;;;;;;3.38;1.90;;;19.20;23.80;;;;;;5033767;28;20182;-49
2023/04/13 10:57:09;;;;;;;4.40;2.80;;;19.30;23.00;;;;;;5033283;28;20181;-49
2023/04/13 10:59:55;;;;;;;3.15;1.60;;;19.30;23.80;;;;;;5033291;28;20272;-49
2023/04/13 11:02:24;;;;;;;5.35;1.10;;;19.30;23.00;;;;;;5033076;28;20220;-50
2023/04/13 11:04:51;;;;;;;2.13;0.90;;;19.40;24.50;;;;;;5033426;28;20601;-49
2023/04/13 11:07:18;;;;;;;2.40;1.45;;;19.30;21.90;;;;;;5033072;28;20240;-49
2023/04/13 11:09:46;;;;;;;2.95;1.20;;;19.30;24.20;;;;;;5033291;28;20174;-49
2023/04/13 11:12:19;;;;;;;2.20;1.20;;;19.40;23.10;;;;;;5033095;28;20240;-49
2023/04/13 11:14:49;;;;;;;3.30;1.25;;;19.50;22.70;;;;;;5033356;28;20254;-50
2023/04/13 11:17:19;;;;;;;5.15;1.75;;;19.50;23.90;;;;;;5032978;28;20809;-50
2023/04/13 11:19:55;;;;;;;2.95;1.48;;;19.70;23.80;;;;;;5033124;28;20194;-49
2023/04/13 11:22:23;;;;;;;2.22;1.17;;;20.10;23.10;;;;;;5033160;28;20249;-49
2023/04/13 11:24:50;;;;;;;3.22;1.10;;;20.30;22.00;;;;;;5032852;28;20641;-50
2023/04/13 11:27:20;;;;;;;4.80;1.60;;;20.50;23.50;;;;;;5032744;28;20669;-50
2023/04/13 11:30:03;;;;;;;2.10;1.05;;;20.80;21.70;;;;;;5032718;28;20523;-50
2023/04/13 11:32:31;;;;;;;2.97;1.00;;;21.10;22.40;;;;;;5032659;28;20158;-50
2023/04/13 11:35:13;;;;;;;4.25;1.42;;;21.20;21.00;;;;;;5032320;28;20224;-50
2023/04/13 11:37:47;;;;;;;3.13;1.10;;;21.00;20.50;;;;;;5032809;28;20221;-50
2023/04/13 11:40:16;;;;;;;2.83;1.17;;;20.70;21.40;;;;;;5032643;28;20642;-50
2023/04/13 11:42:44;;;;;;;2.95;1.73;;;20.70;22.80;;;;;;5032410;28;20178;-50
2023/04/13 11:45:12;;;;;;;1.92;1.10;;;20.80;22.40;;;;;;5032431;28;20260;-50
2023/04/13 11:47:38;;;;;;;4.80;1.20;;;21.00;23.60;;;;;;5032255;28;20716;-50
2023/04/13 11:50:05;;;;;;;2.75;1.00;;;21.00;22.80;;;;;;5032659;28;20182;-50
2023/04/13 11:52:32;;;;;;;2.85;1.20;;;21.20;22.60;;;;;;5032367;28;20174;-50
2023/04/13 11:54:59;;;;;;;1.83;1.13;;;21.00;22.40;;;;;;5032644;28;20188;-50
2023/04/13 11:57:27;;;;;;;3.95;1.50;;;21.10;21.20;;;;;;5032309;28;20190;-50
2023/04/13 11:59:53;;;;;;;3.15;1.38;;;20.80;20.40;;;;;;5032286;28;20214;-50
2023/04/13 12:02:27;;;;;;;3.00;1.30;;;20.70;22.40;;;;;;5032369;28;20223;-50
2023/04/13 12:04:54;;;;;;;2.00;1.02;;;20.70;21.60;;;;;;5032421;28;20181;-50
2023/04/13 12:07:20;;;;;;;3.38;1.35;;;20.60;21.30;;;;;;5032219;28;20201;-49
2023/04/13 12:09:47;;;;;;;2.33;1.08;;;20.40;22.20;;;;;;5032282;28;20261;-50
2023/04/13 12:12:23;;;;;;;3.88;0.98;;;20.40;22.20;;;;;;5031976;28;20249;-50
2023/04/13 12:14:56;;;;;;;3.72;1.10;;;20.30;21.90;;;;;;5031968;28;20262;-50
2023/04/13 12:17:30;;;;;;;2.10;0.93;;;20.20;22.20;;;;;;5032195;28;20233;-50
2023/04/13 12:19:58;;;;;;;1.92;0.95;;;20.10;22.60;;;;;;5032003;28;20190;-50
2023/04/13 12:22:37;;;;;;;2.50;0.90;;;19.90;22.00;;;;;;5031977;28;20273;-50
2023/04/13 12:25:17;;;;;;;4.55;1.20;;;20.00;23.20;;;;;;5031925;28;20208;-50
2023/04/13 12:27:43;;;;;;;1.73;0.80;;;20.00;22.80;;;;;;5032158;28;20228;-50
2023/04/13 12:30:15;;;;;;;1.98;0.75;;;20.00;21.50;;;;;;5031951;28;20235;-50
2023/04/13 12:32:46;;;;;;;2.67;1.10;;;19.90;23.20;;;;;;5031814;28;20181;-50
2023/04/13 12:35:13;;;;;;;1.80;1.10;;;19.90;23.50;;;;;;5031828;28;20538;-50
2023/04/13 12:37:40;;;;;;;3.58;1.52;;;20.00;23.00;;;;;;5031943;28;20197;-50
2023/04/13 12:40:09;;;;;;;6.22;1.90;;;19.80;22.10;;;;;;5032143;28;20220;-50
2023/04/13 12:42:35;;;;;;;4.82;1.25;;;19.50;22.50;;;;;;5031522;28;20272;-50
2023/04/13 12:45:01;;;;;;;2.45;1.50;;;19.50;22.90;;;;;;5033319;28;20258;-50
2023/04/13 12:47:27;;;;;;;1.93;1.10;;;19.50;22.90;;;;;;5035655;28;20881;-50
2023/04/13 12:49:52;;;;;;;2.53;1.10;;;19.70;24.00;;;;;;5035813;28;20180;-50
2023/04/13 12:52:18;;;;;;;4.27;1.73;;;19.90;25.30;;;;;;5035716;28;20257;-50